Time;durP1;ratioP1;P1;durP2;ratioP2;P2;SDS_P1;SDS_P2;PMS_P1;PMS_P2;Temp;Humidity;BMP_temperature;BMP_pressure;BME280_temperature;BME280_humidity;BME280_pressure;Samples;Min_cycle;Max_cycle;Signal;HPM_P1;HPM_P2
2022/05/19 00:02:25;;;;;;;3.70;3.40;;;;;;;22.06;55.18;101237.63;5028648;28;20186;-81
2022/05/19 00:04:52;;;;;;;3.45;3.15;;;;;;;22.05;55.28;101241.34;5027404;28;20209;-81
2022/05/19 00:07:19;;;;;;;5.30;3.25;;;;;;;22.03;55.39;101249.66;5012819;28;20213;-81
2022/05/19 00:09:46;;;;;;;4.43;3.80;;;;;;;22.02;55.42;101242.53;5029180;28;20229;-81
2022/05/19 00:12:16;;;;;;;4.63;3.22;;;;;;;22.01;55.33;101242.69;5029761;28;20210;-80
2022/05/19 00:14:43;;;;;;;3.72;3.17;;;;;;;21.99;55.36;101240.09;5029554;28;20230;-80
2022/05/19 00:17:11;;;;;;;4.30;3.08;;;;;;;21.98;55.33;101238.41;5028578;28;20217;-80
2022/05/19 00:19:38;;;;;;;4.03;3.55;;;;;;;21.97;55.53;101235.84;5033342;28;20743;-80
2022/05/19 00:22:05;;;;;;;3.67;3.38;;;;;;;21.96;55.41;101236.84;5032995;28;20293;-80
2022/05/19 00:24:32;;;;;;;3.80;2.97;;;;;;;21.93;55.42;101232.59;5033507;28;20209;-81
2022/05/19 00:26:59;;;;;;;4.03;3.60;;;;;;;21.91;55.49;101226.47;5025274;28;20207;-81
2022/05/19 00:29:26;;;;;;;4.15;3.65;;;;;;;21.90;55.46;101223.91;5027732;28;20210;-81
2022/05/19 00:31:52;;;;;;;4.22;3.30;;;;;;;21.87;55.60;101222.34;5029432;28;20209;-81
2022/05/19 00:34:20;;;;;;;4.40;3.20;;;;;;;21.86;55.53;101230.63;5032744;28;20212;-81
2022/05/19 00:36:47;;;;;;;3.88;3.45;;;;;;;21.83;55.65;101227.25;5032428;28;20232;-81
2022/05/19 00:39:14;;;;;;;4.53;3.25;;;;;;;21.81;55.63;101228.41;5032604;28;20787;-81
2022/05/19 00:41:44;;;;;;;3.30;3.10;;;;;;;21.79;55.62;101219.59;5032944;28;20222;-81
2022/05/19 00:44:11;;;;;;;3.83;3.53;;;;;;;21.77;55.72;101216.16;5032853;28;20213;-81
2022/05/19 00:46:45;;;;;;;4.35;3.10;;;;;;;21.76;55.73;101225.31;5032582;28;20213;-80
2022/05/19 00:49:17;;;;;;;3.78;3.40;;;;;;;21.73;55.82;101225.63;5032819;28;20237;-80
2022/05/19 00:51:48;;;;;;;6.20;3.80;;;;;;;21.72;55.75;101222.06;5032387;28;20702;-81
2022/05/19 00:54:18;;;;;;;3.47;3.17;;;;;;;21.70;55.87;101218.63;5032739;28;20205;-80
2022/05/19 00:56:49;;;;;;;5.38;3.22;;;;;;;21.70;55.78;101217.78;5025295;28;20214;-80
2022/05/19 00:59:25;;;;;;;4.90;3.35;;;;;;;21.67;55.83;101213.56;5021243;28;20230;-80
2022/05/19 01:01:55;;;;;;;3.72;3.35;;;;;;;21.67;55.93;101216.28;5021165;28;20672;-80
2022/05/19 01:04:28;;;;;;;4.47;3.42;;;;;;;21.66;55.95;101211.00;5024575;28;20238;-80
2022/05/19 01:07:02;;;;;;;4.00;3.60;;;;;;;21.62;55.99;101207.75;5032337;28;20671;-80
2022/05/19 01:09:34;;;;;;;3.72;3.25;;;;;;;21.60;55.98;101208.91;5032646;28;20717;-79
2022/05/19 01:12:01;;;;;;;3.83;3.53;;;;;;;21.57;56.14;101212.75;5032321;28;20273;-80
2022/05/19 01:14:28;;;;;;;5.45;3.38;;;;;;;21.54;56.27;101204.09;5032661;28;20205;-80
2022/05/19 01:16:54;;;;;;;4.60;3.78;;;;;;;21.52;56.37;101206.09;5030122;28;20218;-79
2022/05/19 01:19:27;;;;;;;3.63;3.33;;;;;;;21.50;56.22;101213.56;5031912;28;20225;-79
2022/05/19 01:22:01;;;;;;;4.28;3.67;;;;;;;21.47;56.38;101203.88;5031989;28;20214;-80
2022/05/19 01:24:33;;;;;;;5.47;3.45;;;;;;;21.44;56.42;101204.16;5031805;28;20201;-80
2022/05/19 01:27:03;;;;;;;6.25;4.05;;;;;;;21.42;56.62;101212.44;5031546;28;20650;-79
2022/05/19 01:29:30;;;;;;;3.60;3.30;;;;;;;21.40;56.55;101213.59;5031893;28;20229;-79
2022/05/19 01:31:58;;;;;;;4.03;3.63;;;;;;;21.37;56.81;101214.75;5032212;28;20656;-79
2022/05/19 01:34:27;;;;;;;6.05;3.90;;;;;;;21.35;56.85;101205.06;5032332;28;20212;-80
2022/05/19 01:36:55;;;;;;;3.80;3.47;;;;;;;21.32;57.14;101206.22;5030646;28;20206;-79
2022/05/19 01:39:24;;;;;;;4.30;3.60;;;;;;;21.30;56.86;101202.00;5032008;28;20225;-80
2022/05/19 01:42:09;;;;;;;3.83;3.47;;;;;;;21.28;57.13;101204.00;5031522;28;20225;-80
2022/05/19 01:44:47;;;;;;;3.83;3.45;;;;;;;21.26;56.99;101206.88;5031926;28;20200;-80
2022/05/19 01:47:19;;;;;;;3.63;3.30;;;;;;;21.23;57.24;101207.16;5030316;28;20206;-79
2022/05/19 01:49:53;;;;;;;8.30;4.03;;;;;;;21.21;57.34;101201.03;5032172;28;20222;-79
2022/05/19 01:52:25;;;;;;;3.88;3.47;;;;;;;21.19;57.44;101200.31;5031783;28;20199;-80
2022/05/19 01:54:58;;;;;;;3.43;3.13;;;;;;;21.17;57.57;101209.59;5031471;28;20202;-79
2022/05/19 01:57:29;;;;;;;4.23;3.57;;;;;;;21.14;57.52;101210.72;5031227;28;20208;-80
2022/05/19 02:00:05;;;;;;;3.72;3.40;;;;;;;21.12;57.70;101210.91;5031311;28;20264;-80
2022/05/19 02:02:39;;;;;;;3.85;3.40;;;;;;;21.10;57.54;101206.66;5031461;28;20213;-79
2022/05/19 02:05:14;;;;;;;4.18;3.58;;;;;;;21.07;57.86;101207.81;5044036;28;20202;-79
2022/05/19 02:07:46;;;;;;;4.13;3.63;;;;;;;21.06;57.77;101202.53;5026994;28;20198;-79
2022/05/19 02:10:17;;;;;;;4.07;3.77;;;;;;;21.02;57.82;101207.41;5027473;28;20642;-79
2022/05/19 02:12:47;;;;;;;4.23;3.67;;;;;;;21.01;58.00;101204.84;5032046;28;20197;-80
2022/05/19 02:15:17;;;;;;;4.67;3.40;;;;;;;20.98;58.05;101203.28;5032297;28;20202;-79
2022/05/19 02:17:46;;;;;;;4.00;3.30;;;;;;;20.96;58.05;101201.75;5031100;28;20311;-79
2022/05/19 02:20:15;;;;;;;6.53;3.60;;;;;;;20.94;58.27;101206.47;5031214;28;20215;-79
2022/05/19 02:22:44;;;;;;;6.77;3.67;;;;;;;20.92;58.31;101201.19;5031490;28;20223;-79
2022/05/19 02:25:16;;;;;;;4.33;3.60;;;;;;;20.91;58.08;101206.75;5031239;28;20202;-79
2022/05/19 02:27:50;;;;;;;3.57;3.23;;;;;;;20.88;58.34;101202.50;5030744;28;20524;-79
2022/05/19 02:30:19;;;;;;;6.67;3.87;;;;;;;20.86;58.33;101198.22;5030733;28;20196;-80
2022/05/19 02:32:46;;;;;;;4.33;3.53;;;;;;;20.85;58.28;101199.22;5020476;28;20215;-80
2022/05/19 02:35:13;;;;;;;4.10;3.63;;;;;;;20.82;58.29;101196.81;5019581;28;20649;-80
2022/05/19 02:37:40;;;;;;;5.30;4.37;;;;;;;20.80;58.25;101192.41;5010881;28;20248;-79
2022/05/19 02:40:08;;;;;;;4.00;3.60;;;;;;;20.78;58.36;101197.09;5011189;28;20234;-80
2022/05/19 02:42:35;;;;;;;4.33;3.57;;;;;;;20.76;58.46;101199.13;5011190;28;20207;-79
2022/05/19 02:45:03;;;;;;;4.27;3.60;;;;;;;20.74;58.48;101187.59;5011459;28;20350;-80
2022/05/19 02:47:29;;;;;;;4.07;3.70;;;;;;;20.72;58.57;101186.03;5010893;28;20207;-79
2022/05/19 02:49:56;;;;;;;3.73;3.40;;;;;;;20.71;58.44;101184.34;5023984;28;20236;-80
2022/05/19 02:52:22;;;;;;;5.27;3.60;;;;;;;20.68;58.50;101185.47;5034193;28;20197;-80
2022/05/19 02:54:49;;;;;;;5.37;3.43;;;;;;;20.66;58.62;101182.06;5031057;28;20667;-79
2022/05/19 02:57:15;;;;;;;4.30;3.90;;;;;;;20.64;58.46;101178.66;5030227;28;20210;-80
2022/05/19 02:59:42;;;;;;;6.90;3.90;;;;;;;20.62;58.44;101180.66;5030857;28;20257;-80
2022/05/19 03:02:11;;;;;;;3.97;3.67;;;;;;;20.60;58.64;101185.38;5030427;28;20222;-80
2022/05/19 03:04:37;;;;;;;4.07;3.70;;;;;;;20.57;58.45;101191.09;5010791;28;20209;-80
2022/05/19 03:07:04;;;;;;;4.47;4.07;;;;;;;20.57;58.77;101184.84;5010280;28;20215;-80
2022/05/19 03:09:31;;;;;;;3.73;3.43;;;;;;;20.54;58.49;101194.09;5010620;28;20842;-80
2022/05/19 03:11:57;;;;;;;4.90;3.67;;;;;;;20.52;58.79;101185.28;5010924;28;20210;-80
2022/05/19 03:14:24;;;;;;;5.00;4.00;;;;;;;20.51;58.65;101182.72;5010851;28;20672;-79
2022/05/19 03:16:51;;;;;;;4.17;3.77;;;;;;;20.51;58.54;101185.41;5009293;28;20210;-80
2022/05/19 03:19:20;;;;;;;5.13;3.67;;;;;;;20.49;58.72;101180.16;5010677;28;20239;-79
2022/05/19 03:21:47;;;;;;;4.67;3.57;;;;;;;20.47;58.81;101190.25;5010961;28;20272;-81
2022/05/19 03:24:13;;;;;;;4.37;4.07;;;;;;;20.47;58.96;101181.28;5024148;28;20211;-80
2022/05/19 03:26:40;;;;;;;4.70;3.70;;;;;;;20.44;58.75;101185.13;5029941;28;20219;-80
2022/05/19 03:29:07;;;;;;;4.50;3.77;;;;;;;20.42;58.70;101179.06;5019964;28;20229;-80
2022/05/19 03:31:34;;;;;;;4.53;3.67;;;;;;;20.40;59.01;101181.91;5030619;28;20203;-80
2022/05/19 03:34:01;;;;;;;5.33;3.83;;;;;;;20.39;59.05;101184.75;5029505;28;20209;-80
2022/05/19 03:36:30;;;;;;;5.10;4.10;;;;;;;20.38;59.21;101183.06;5023340;28;20394;-81
2022/05/19 03:38:56;;;;;;;5.10;3.70;;;;;;;20.35;59.30;101175.19;5028442;28;20241;-81
2022/05/19 03:41:23;;;;;;;4.07;3.63;;;;;;;20.34;59.26;101181.59;5010643;28;20230;-79
2022/05/19 03:43:50;;;;;;;4.80;3.80;;;;;;;20.32;59.37;101179.03;5019139;28;20201;-80
2022/05/19 03:46:16;;;;;;;5.07;3.90;;;;;;;20.31;59.27;101188.16;5026277;28;20208;-80
2022/05/19 03:48:43;;;;;;;4.00;3.60;;;;;;;20.30;59.34;101188.28;5025453;28;20256;-81
2022/05/19 03:51:11;;;;;;;5.47;4.00;;;;;;;20.29;59.20;101184.72;5029796;28;20211;-80
2022/05/19 03:53:39;;;;;;;4.30;3.97;;;;;;;20.29;59.36;101183.88;5034011;28;20204;-80
2022/05/19 03:56:06;;;;;;;4.20;3.63;;;;;;;20.29;59.05;101178.47;5027448;28;20206;-79
2022/05/19 03:58:33;;;;;;;4.30;3.53;;;;;;;20.29;59.34;101179.31;5024634;28;20292;-80
2022/05/19 04:00:59;;;;;;;4.00;3.70;;;;;;;20.26;59.45;101179.63;5018257;28;20242;-80
2022/05/19 04:03:26;;;;;;;5.13;3.83;;;;;;;20.29;59.40;101187.44;5028611;28;20696;-80
2022/05/19 04:05:52;;;;;;;4.07;3.70;;;;;;;20.27;59.44;101184.03;5029559;28;20205;-79
2022/05/19 04:08:19;;;;;;;4.23;3.83;;;;;;;20.28;59.30;101187.59;5027501;28;20224;-80
2022/05/19 04:10:48;;;;;;;4.23;3.50;;;;;;;20.27;59.35;101183.19;5032910;28;20214;-81
2022/05/19 04:13:15;;;;;;;5.23;4.03;;;;;;;20.29;59.22;101194.69;5025847;28;20620;-80
2022/05/19 04:15:42;;;;;;;4.10;3.70;;;;;;;20.29;59.42;101189.28;5026236;28;20218;-80
2022/05/19 04:18:08;;;;;;;4.00;3.50;;;;;;;20.30;59.20;101186.44;5029444;28;20236;-80
2022/05/19 04:20:35;;;;;;;4.40;4.00;;;;;;;20.31;59.33;101192.72;5025958;28;20226;-80
2022/05/19 04:23:02;;;;;;;4.30;3.90;;;;;;;20.32;59.22;101189.00;5019855;28;20239;-80
2022/05/19 04:25:30;;;;;;;4.50;4.10;;;;;;;20.32;59.17;101189.84;5022559;28;20232;-80
2022/05/19 04:27:58;;;;;;;4.87;3.47;;;;;;;20.34;59.25;101184.31;5023935;28;20216;-80
2022/05/19 04:30:25;;;;;;;5.83;3.80;;;;;;;20.35;59.18;101188.72;5022530;28;21428;-80
2022/05/19 04:32:52;;;;;;;4.00;3.60;;;;;;;20.35;59.26;101183.31;5025757;28;20204;-82
2022/05/19 04:35:19;;;;;;;5.70;3.60;;;;;;;20.35;59.29;101188.72;5026985;28;20192;-81
2022/05/19 04:37:46;;;;;;;4.80;3.60;;;;;;;20.37;59.21;101202.97;5028010;28;21064;-83
2022/05/19 04:40:15;;;;;;;4.53;3.97;;;;;;;20.37;59.21;101201.13;5026320;28;20215;-82
2022/05/19 04:42:42;;;;;;;4.07;3.77;;;;;;;20.40;59.17;101191.88;5027708;28;20225;-83
2022/05/19 04:45:13;;;;;;;5.13;3.50;;;;;;;20.41;59.21;101193.59;5024198;28;20294;-84
2022/05/19 04:47:39;;;;;;;4.83;3.50;;;;;;;20.43;59.12;101188.84;5021569;28;20199;-84
2022/05/19 04:50:07;;;;;;;3.87;3.40;;;;;;;20.44;59.12;101193.25;5021045;28;20227;-83
2022/05/19 04:52:34;;;;;;;4.90;3.70;;;;;;;20.46;59.33;101193.97;5024452;28;20730;-83
2022/05/19 04:55:01;;;;;;;3.87;3.40;;;;;;;20.47;59.17;101203.78;5022291;28;20855;-84
2022/05/19 04:57:28;;;;;;;4.13;3.50;;;;;;;20.49;59.17;101200.94;5023002;28;20207;-83
2022/05/19 04:59:54;;;;;;;4.57;4.03;;;;;;;20.50;59.20;101198.09;5023129;28;20238;-84
2022/05/19 05:02:22;;;;;;;5.40;4.00;;;;;;;20.53;59.57;101196.94;5025522;28;20224;-83
2022/05/19 05:04:49;;;;;;;5.50;3.87;;;;;;;20.55;59.40;101201.22;5021822;28;20227;-83
2022/05/19 05:07:17;;;;;;;4.20;3.90;;;;;;;20.58;59.50;101203.63;5021808;28;20212;-83
2022/05/19 05:09:44;;;;;;;4.27;3.67;;;;;;;20.62;59.49;101198.75;5026721;28;20221;-81
2022/05/19 05:12:11;;;;;;;3.63;3.30;;;;;;;20.64;59.73;101199.44;5021933;28;20202;-82
2022/05/19 05:14:38;;;;;;;3.83;3.43;;;;;;;20.66;59.51;101209.13;5036128;28;20202;-82
2022/05/19 05:17:05;;;;;;;6.30;5.20;;;;;;;20.70;59.49;101207.84;5017403;28;20220;-82
2022/05/19 05:19:33;;;;;;;4.23;3.77;;;;;;;20.74;59.59;101206.56;5022867;28;20214;-82
2022/05/19 05:22:01;;;;;;;4.80;3.50;;;;;;;20.77;59.47;101205.41;5014913;28;20227;-82
2022/05/19 05:24:28;;;;;;;4.00;3.60;;;;;;;20.80;59.65;101214.06;5015997;28;20210;-82
2022/05/19 05:26:55;;;;;;;4.37;3.10;;;;;;;20.84;59.25;101209.19;5014346;28;20566;-82
2022/05/19 05:29:22;;;;;;;3.73;3.43;;;;;;;20.88;58.83;101207.03;5013928;28;20720;-82
2022/05/19 05:31:49;;;;;;;5.65;3.33;;;;;;;20.94;57.57;101211.88;5013382;28;20202;-83
2022/05/19 05:34:15;;;;;;;5.75;3.35;;;;;;;20.98;56.63;101210.53;5014410;28;20214;-82
2022/05/19 05:36:43;;;;;;;4.28;3.13;;;;;;;21.01;56.08;101213.81;5014040;28;20213;-82
2022/05/19 05:39:10;;;;;;;3.10;2.90;;;;;;;21.08;55.58;101214.94;5015012;28;20243;-82
2022/05/19 05:41:37;;;;;;;4.00;2.83;;;;;;;21.17;54.89;101213.16;5015333;28;20233;-82
2022/05/19 05:44:04;;;;;;;3.78;3.15;;;;;;;21.25;54.85;101217.84;5013354;28;20572;-81
2022/05/19 05:46:30;;;;;;;4.20;2.85;;;;;;;21.32;54.44;101214.34;5012272;28;20297;-80
2022/05/19 05:48:57;;;;;;;4.35;3.15;;;;;;;21.37;53.94;101214.75;5018387;28;20223;-80
2022/05/19 05:51:24;;;;;;;3.03;2.72;;;;;;;21.45;53.96;101212.16;5016110;28;20647;-80
2022/05/19 05:53:52;;;;;;;4.15;3.00;;;;;;;21.56;53.59;101221.03;5023832;28;20213;-80
2022/05/19 05:56:20;;;;;;;3.95;2.78;;;;;;;21.64;52.83;101226.56;5019496;28;20685;-80
2022/05/19 05:58:47;;;;;;;3.10;2.80;;;;;;;21.71;52.48;101219.50;5030073;28;20226;-81
2022/05/19 06:01:15;;;;;;;3.25;2.95;;;;;;;21.76;51.99;101215.31;5028411;28;20206;-81
2022/05/19 06:03:42;;;;;;;3.33;2.70;;;;;;;21.84;51.76;101214.56;5021604;28;20202;-80
2022/05/19 06:06:09;;;;;;;3.30;2.95;;;;;;;21.91;51.52;101233.75;5026055;28;20217;-81
2022/05/19 06:08:35;;;;;;;4.18;2.83;;;;;;;22.00;51.30;101228.28;5019776;28;20217;-80
2022/05/19 06:11:03;;;;;;;3.25;2.88;;;;;;;22.10;51.05;101231.75;5021784;28;20688;-81
2022/05/19 06:13:30;;;;;;;4.22;2.75;;;;;;;22.19;50.80;101231.81;5026130;28;20687;-81
2022/05/19 06:15:57;;;;;;;4.25;2.80;;;;;;;22.30;50.56;101239.69;5027437;28;20568;-80
2022/05/19 06:18:25;;;;;;;4.47;2.88;;;;;;;22.39;50.25;101238.75;5024094;28;20226;-80
2022/05/19 06:20:52;;;;;;;3.30;3.00;;;;;;;22.49;50.30;101247.63;5030559;28;20253;-81
2022/05/19 06:23:19;;;;;;;3.45;2.92;;;;;;;22.58;50.08;101241.22;5028441;28;20222;-81
2022/05/19 06:25:46;;;;;;;3.55;3.10;;;;;;;22.64;49.75;101237.88;5016973;28;20228;-80
2022/05/19 06:28:15;;;;;;;3.47;3.17;;;;;;;22.67;49.48;101240.28;5028036;28;20215;-80
2022/05/19 06:30:42;;;;;;;3.47;3.08;;;;;;;22.71;49.59;101238.94;5013074;28;20210;-81
2022/05/19 06:33:09;;;;;;;4.97;2.90;;;;;;;22.79;49.99;101236.28;5012902;28;20209;-80
2022/05/19 06:35:38;;;;;;;3.30;3.00;;;;;;;22.91;49.85;101239.59;5012915;28;20217;-81
2022/05/19 06:38:05;;;;;;;4.45;2.97;;;;;;;23.01;49.81;101247.59;5011458;28;20285;-80
2022/05/19 06:40:34;;;;;;;3.17;2.90;;;;;;;23.11;49.60;101241.00;5012587;28;20206;-80
2022/05/19 06:43:01;;;;;;;3.28;2.85;;;;;;;23.25;49.70;101253.13;5013126;28;20287;-80
2022/05/19 06:45:30;;;;;;;3.22;2.92;;;;;;;23.36;49.04;101244.66;5011980;28;20238;-80
2022/05/19 06:47:57;;;;;;;3.85;3.20;;;;;;;23.46;48.63;101237.22;5012171;28;20246;-81
2022/05/19 06:50:25;;;;;;;9.63;2.97;;;;;;;23.57;48.52;101235.22;5012655;28;20260;-80
2022/05/19 06:52:53;;;;;;;3.78;3.15;;;;;;;23.67;47.88;101244.06;5013130;28;20207;-81
2022/05/19 06:55:22;;;;;;;3.33;2.80;;;;;;;23.78;47.64;101241.91;5013103;28;20583;-81
2022/05/19 06:57:49;;;;;;;3.20;2.90;;;;;;;23.91;46.64;101237.81;5012382;28;20325;-81
2022/05/19 07:00:18;;;;;;;3.67;2.70;;;;;;;24.02;47.11;101237.47;5012451;28;20226;-81
2022/05/19 07:02:49;;;;;;;3.53;3.05;;;;;;;24.19;46.25;101234.56;5012694;28;20226;-81
2022/05/19 07:05:16;;;;;;;3.08;2.75;;;;;;;24.31;45.86;101229.66;5012308;28;20210;-81
2022/05/19 07:07:43;;;;;;;4.63;2.70;;;;;;;24.45;45.33;101230.84;5011900;28;20209;-81
2022/05/19 07:10:10;;;;;;;3.17;2.85;;;;;;;24.55;45.07;101220.59;5012478;28;20234;-81
2022/05/19 07:12:38;;;;;;;2.88;2.42;;;;;;;24.65;44.50;101204.06;5012611;28;20211;-81
2022/05/19 07:15:06;;;;;;;4.25;2.63;;;;;;;24.77;45.05;101210.81;5039734;28;20205;-81
2022/05/19 07:17:32;;;;;;;3.55;2.40;;;;;;;24.87;44.30;101203.31;5051526;28;20201;-81
2022/05/19 07:22:44;;;;;;;5.40;2.83;;;;;;;25.03;43.23;101205.13;5051953;28;20224;-81
2022/05/19 07:25:11;;;;;;;3.20;2.40;;;;;;;25.09;43.34;101207.13;5051699;28;20205;-81
2022/05/19 07:27:38;;;;;;;3.13;2.63;;;;;;;25.18;42.99;101204.19;5050714;28;20215;-81
2022/05/19 07:30:07;;;;;;;5.38;2.78;;;;;;;25.25;42.85;101204.34;5052267;28;20315;-81
2022/05/19 07:32:33;;;;;;;3.88;2.67;;;;;;;25.31;42.22;101198.16;5052197;28;20205;-81
2022/05/19 07:35:01;;;;;;;3.42;2.70;;;;;;;25.37;42.15;101193.88;5051645;28;20216;-81
2022/05/19 07:37:28;;;;;;;3.72;2.45;;;;;;;25.42;42.23;101191.47;5049665;28;20240;-81
2022/05/19 07:39:55;;;;;;;3.15;2.35;;;;;;;25.45;42.22;101188.34;5051934;28;20648;-81
2022/05/19 07:42:22;;;;;;;3.78;2.53;;;;;;;25.54;42.80;101184.53;5052109;28;20229;-81
2022/05/19 07:44:48;;;;;;;3.95;2.85;;;;;;;25.58;41.71;101174.97;5051654;28;20209;-81
2022/05/19 07:47:15;;;;;;;3.95;2.63;;;;;;;25.62;41.78;101181.78;5049937;28;20209;-81
2022/05/19 07:49:41;;;;;;;3.72;2.42;;;;;;;25.68;41.78;101181.06;5051833;28;20583;-81
2022/05/19 07:52:10;;;;;;;2.80;2.30;;;;;;;25.74;41.29;101176.75;5052274;28;20570;-81
2022/05/19 07:54:37;;;;;;;4.57;2.40;;;;;;;25.75;40.28;101165.66;5052129;28;20216;-81
2022/05/19 07:57:04;;;;;;;4.15;2.97;;;;;;;25.78;41.66;101175.38;5051811;28;20240;-81
2022/05/19 07:59:31;;;;;;;2.65;2.25;;;;;;;25.88;42.03;101170.50;5051135;28;20232;-81
2022/05/19 08:01:58;;;;;;;4.22;2.80;;;;;;;25.99;42.41;101172.75;5052367;28;20767;-81
2022/05/19 08:04:26;;;;;;;3.58;2.33;;;;;;;26.09;41.78;101173.38;5052163;28;20298;-81
2022/05/19 08:06:54;;;;;;;3.17;2.85;;;;;;;26.15;42.10;101172.63;5051382;28;20292;-81
2022/05/19 08:12:08;;;;;;;4.25;2.72;;;;;;;26.22;41.69;101167.25;5052034;28;20220;-81
2022/05/19 08:17:20;;;;;;;5.20;3.03;;;;;;;26.26;41.77;101163.13;5051555;28;20191;-82
2022/05/19 08:19:47;;;;;;;3.95;2.35;;;;;;;26.25;41.67;101162.28;5051524;28;20268;-81
2022/05/19 08:22:14;;;;;;;6.20;3.03;;;;;;;26.24;41.33;101160.56;5051952;28;20235;-82
2022/05/19 08:24:46;;;;;;;4.88;3.08;;;;;;;26.22;41.00;101157.19;5052784;28;20220;-82
2022/05/19 08:27:13;;;;;;;2.78;2.58;;;;;;;26.25;41.29;101161.44;5051442;28;20205;-81
2022/05/19 08:29:39;;;;;;;2.47;2.28;;;;;;;26.27;41.14;101170.28;5051848;28;20240;-81
2022/05/19 08:32:06;;;;;;;2.92;2.60;;;;;;;26.29;41.02;101168.25;5052008;28;20209;-82
2022/05/19 08:34:33;;;;;;;3.63;3.08;;;;;;;26.34;41.25;101171.25;5052300;28;20209;-82
2022/05/19 08:36:59;;;;;;;4.30;3.10;;;;;;;26.43;40.80;101161.09;5049693;28;20305;-82
2022/05/19 08:39:26;;;;;;;5.85;3.28;;;;;;;26.52;41.36;101171.72;5054110;28;20221;-82
2022/05/19 08:41:59;;;;;;;3.88;2.83;;;;;;;26.67;40.72;101163.53;5055680;28;20205;-82
2022/05/19 08:44:29;;;;;;;4.63;2.58;;;;;;;26.77;40.14;101166.81;5055883;28;20217;-82
2022/05/19 08:46:57;;;;;;;3.08;2.78;;;;;;;26.87;40.03;101172.00;5053336;28;20205;-81
2022/05/19 08:49:35;;;;;;;7.97;3.42;;;;;;;26.96;40.34;101166.25;5053879;28;20228;-81
2022/05/19 08:52:04;;;;;;;3.47;3.17;;;;;;;27.14;39.87;101173.19;5055153;28;20196;-82
2022/05/19 08:54:33;;;;;;;3.13;2.83;;;;;;;27.28;39.45;101180.50;5056076;28;20671;-82
2022/05/19 08:57:08;;;;;;;3.70;2.88;;;;;;;27.42;39.11;101181.50;5054324;28;20663;-81
2022/05/19 08:59:44;;;;;;;3.05;2.75;;;;;;;27.57;39.27;101179.59;5039229;28;20233;-82
2022/05/19 09:02:14;;;;;;;4.78;2.58;;;;;;;27.72;38.88;101172.16;5035572;28;20192;-82
2022/05/19 09:04:54;;;;;;;6.80;2.80;;;;;;;27.82;38.44;101166.34;5035617;28;20195;-82
2022/05/19 09:10:29;;;;;;;2.58;2.38;;;;;;;27.91;37.46;101160.53;5034666;28;20224;-82
2022/05/19 09:13:10;;;;;;;2.90;2.65;;;;;;;27.96;37.26;101159.94;5034886;28;20192;-82
2022/05/19 09:15:38;;;;;;;3.13;2.47;;;;;;;28.03;37.47;101138.94;5052737;28;20197;-80
2022/05/19 09:18:05;;;;;;;4.65;3.00;;;;;;;28.12;37.38;101129.53;5054724;28;20209;-82
2022/05/19 09:20:39;;;;;;;6.18;2.75;;;;;;;28.19;37.51;101135.03;5054021;28;20205;-82
2022/05/19 09:23:06;;;;;;;3.92;2.60;;;;;;;28.24;37.39;101127.09;5053876;28;20240;-82
2022/05/19 09:25:37;;;;;;;5.20;3.05;;;;;;;28.32;37.42;101121.44;5053516;28;20208;-81
2022/05/19 09:28:05;;;;;;;3.20;2.90;;;;;;;28.42;37.61;101116.47;5053390;28;20554;-82
2022/05/19 09:30:38;;;;;;;4.78;2.70;;;;;;;28.52;36.87;101116.94;5053353;28;20339;-81
2022/05/19 09:33:14;;;;;;;3.75;2.72;;;;;;;28.58;36.84;101107.06;5053938;28;20209;-82
2022/05/19 09:35:47;;;;;;;4.80;2.78;;;;;;;28.65;36.92;101103.31;5053962;28;20766;-82
2022/05/19 09:38:24;;;;;;;5.65;2.67;;;;;;;28.71;36.38;101104.38;5051228;28;20243;-82
2022/05/19 09:40:56;;;;;;;3.33;2.63;;;;;;;28.78;36.36;101093.44;5053967;28;20192;-82
2022/05/19 09:43:28;;;;;;;3.75;2.67;;;;;;;28.80;36.29;101094.97;5053347;28;20209;-82
2022/05/19 09:46:03;;;;;;;4.70;2.80;;;;;;;28.79;36.58;101081.44;5052756;28;20205;-82
2022/05/19 09:48:34;;;;;;;2.85;2.42;;;;;;;28.77;36.11;101084.38;5053750;28;20724;-81
2022/05/19 09:51:05;;;;;;;5.63;2.60;;;;;;;28.73;35.86;101084.97;5052542;28;20206;-81
2022/05/19 09:53:39;;;;;;;7.03;2.75;;;;;;;28.72;36.44;101092.34;5054109;28;20534;-82
2022/05/19 09:56:12;;;;;;;3.80;2.75;;;;;;;28.73;36.06;101093.19;5053552;28;20212;-82
2022/05/19 09:58:45;;;;;;;4.75;3.05;;;;;;;28.72;35.83;101095.09;5053205;28;20583;-82
2022/05/19 10:01:19;;;;;;;4.25;2.63;;;;;;;28.76;36.18;101099.13;5053337;28;20197;-82
2022/05/19 10:03:51;;;;;;;3.40;2.60;;;;;;;28.83;35.99;101094.56;5053537;28;20224;-82
2022/05/19 10:06:20;;;;;;;3.60;2.92;;;;;;;28.91;36.02;101096.25;5052851;28;20194;-82
2022/05/19 10:08:48;;;;;;;2.78;2.58;;;;;;;29.00;36.24;101098.63;5053124;28;20604;-82
2022/05/19 10:11:24;;;;;;;3.15;2.30;;;;;;;29.11;36.02;101099.03;5053221;28;20240;-82
2022/05/19 10:13:58;;;;;;;3.75;2.58;;;;;;;29.17;35.15;101090.84;5053567;28;20648;-82
2022/05/19 10:16:34;;;;;;;4.40;2.60;;;;;;;29.22;34.88;101087.44;5052363;28;20185;-82
2022/05/19 10:19:11;;;;;;;5.63;2.70;;;;;;;29.23;34.47;101079.03;5052971;28;20604;-81
2022/05/19 10:22:08;;;;;;;4.30;2.58;;;;;;;29.27;35.13;101074.81;5053284;28;20786;-82
2022/05/19 10:25:01;;;;;;;3.20;2.50;;;;;;;29.35;35.30;101087.50;5049345;28;20265;-81
2022/05/19 10:33:29;;;;;;;2.90;2.30;;;;;;;29.56;34.54;101067.28;5052608;28;20188;-82
2022/05/19 10:36:09;;;;;;;2.28;2.17;;;;;;;29.65;34.42;101064.09;5054022;28;20190;-82
2022/05/19 10:38:45;;;;;;;2.70;2.38;;;;;;;29.77;34.11;101057.94;5052016;28;20237;-82
2022/05/19 10:41:34;;;;;;;3.97;2.40;;;;;;;29.83;33.43;101062.59;5054286;28;20939;-82
2022/05/19 10:44:18;;;;;;;5.50;2.45;;;;;;;29.83;32.91;101065.34;5054161;28;20651;-82
2022/05/19 10:46:55;;;;;;;3.08;2.60;;;;;;;29.83;33.02;101051.63;5051742;28;20240;-82
2022/05/19 10:49:48;;;;;;;2.72;1.95;;;;;;;29.86;33.01;101052.03;5053134;28;20225;-82
2022/05/19 10:52:28;;;;;;;4.50;2.15;;;;;;;29.89;32.76;101046.13;5053709;28;20272;-82
2022/05/19 10:55:08;;;;;;;2.75;2.10;;;;;;;29.93;32.08;101033.63;5052620;28;20247;-82
2022/05/19 10:57:53;;;;;;;3.88;2.42;;;;;;;29.94;31.59;101026.22;5051786;28;20276;-82
2022/05/19 11:00:26;;;;;;;2.00;1.85;;;;;;;29.96;31.45;101032.34;5053054;28;20269;-82
2022/05/19 11:03:24;;;;;;;2.20;2.00;;;;;;;29.99;30.98;101020.97;5051908;28;20189;-81
2022/05/19 11:06:03;;;;;;;3.20;2.22;;;;;;;30.03;31.15;101016.75;5052178;28;20209;-82
2022/05/19 11:08:42;;;;;;;2.65;2.17;;;;;;;30.14;32.12;101009.72;5052183;28;20221;-82
2022/05/19 11:11:18;;;;;;;5.22;2.40;;;;;;;30.27;32.04;101020.69;5052380;28;20205;-82
2022/05/19 11:14:00;;;;;;;6.05;2.60;;;;;;;30.33;31.45;101030.81;5050145;28;20236;-82
2022/05/19 11:16:39;;;;;;;2.80;2.20;;;;;;;30.34;30.98;101014.09;5032471;28;20197;-82
2022/05/19 11:19:15;;;;;;;3.15;2.00;;;;;;;30.41;30.42;101000.34;5032339;28;20236;-82
2022/05/19 11:21:50;;;;;;;2.42;1.80;;;;;;;30.45;30.71;100998.84;5032526;28;20194;-82
2022/05/19 11:24:22;;;;;;;2.33;1.98;;;;;;;30.46;30.21;100992.25;5032906;28;20212;-82
2022/05/19 11:26:56;;;;;;;2.53;2.05;;;;;;;30.47;30.21;100990.34;5032387;28;20198;-82
2022/05/19 11:29:32;;;;;;;2.25;2.00;;;;;;;30.45;30.36;100989.75;5032041;28;20255;-82
2022/05/19 11:32:04;;;;;;;4.07;2.10;;;;;;;30.44;30.15;100969.66;5033098;28;20695;-82
2022/05/19 11:34:39;;;;;;;2.72;2.10;;;;;;;30.44;29.81;100968.84;5033110;28;20273;-81
2022/05/19 11:37:16;;;;;;;2.63;1.88;;;;;;;30.45;30.48;100967.78;5030137;28;20204;-82
2022/05/19 11:39:54;;;;;;;2.67;2.00;;;;;;;30.44;30.79;100955.94;5032650;28;20225;-82
2022/05/19 11:42:30;;;;;;;2.90;2.17;;;;;;;30.50;30.66;100962.44;5032146;28;20214;-82
2022/05/19 11:44:57;;;;;;;4.30;2.38;;;;;;;30.57;30.71;100961.38;5032700;28;20209;-82
2022/05/19 11:55:54;;;;;;;3.28;1.92;;;;;;;30.75;30.07;100951.53;5033141;28;20220;-82
2022/05/19 11:58:24;;;;;;;3.78;2.05;;;;;;;30.78;30.27;100935.44;5032614;28;20622;-82
2022/05/19 12:00:56;;;;;;;3.38;2.05;;;;;;;30.80;30.92;100935.22;5033223;28;20564;-82
2022/05/19 12:03:30;;;;;;;3.72;2.17;;;;;;;30.85;30.67;100924.38;5033129;28;20260;-82